Time;durP1;ratioP1;P1;durP2;ratioP2;P2;SDS_P1;SDS_P2;PMS_P1;PMS_P2;Temp;Humidity;BMP_temperature;BMP_pressure;BME280_temperature;BME280_humidity;BME280_pressure;Samples;Min_cycle;Max_cycle;Signal;HPM_P1;HPM_P2
2024/01/09 00:00:17;;;;;;;;;;;;;;;;;;5126866;28;19963;-42
2024/01/09 00:02:43;;;;;;;;;;;;;;;;;;5126147;28;20019;-41
2024/01/09 00:05:08;;;;;;;;;;;;;;;;;;5127030;28;20480;-43
2024/01/09 00:07:34;;;;;;;;;;;;;;;;;;5126932;28;19967;-41
2024/01/09 00:09:59;;;;;;;;;;;;;;;;;;5126832;28;19998;-42
2024/01/09 00:12:25;;;;;;;;;;;;;;;;;;5126761;28;19966;-42
2024/01/09 00:14:50;;;;;;;;;;;;;;;;;;5126881;28;20026;-41
2024/01/09 00:17:16;;;;;;;;;;;;;;;;;;5126674;28;19923;-43
2024/01/09 00:19:41;;;;;;;;;;;;;;;;;;5127130;28;20034;-41
2024/01/09 00:22:07;;;;;;;;;;;;;;;;;;5125798;28;20291;-42
2024/01/09 00:24:32;;;;;;;;;;;;;;;;;;5126718;28;20284;-43
2024/01/09 00:26:57;;;;;;;;;;;;;;;;;;5126414;28;20356;-41
2024/01/09 00:29:23;;;;;;;;;;;;;;;;;;5128280;27;19993;-42
2024/01/09 00:31:48;;;;;;;;;;;;;;;;;;5130075;28;20271;-42
2024/01/09 00:34:14;;;;;;;;;;;;;;;;;;5130383;28;19962;-45
2024/01/09 00:36:39;;;;;;;;;;;;;;;;;;5129662;28;20065;-41
2024/01/09 00:39:05;;;;;;;;;;;;;;;;;;5130080;28;19966;-42
2024/01/09 00:41:30;;;;;;;;;;;;;;;;;;5129646;28;20353;-42
2024/01/09 00:43:56;;;;;;;;;;;;;;;;;;5130184;28;20418;-43
2024/01/09 00:46:21;;;;;;;;;;;;;;;;;;5129476;28;20010;-42
2024/01/09 00:48:47;;;;;;;;;;;;;;;;;;5130304;28;19979;-41
2024/01/09 00:51:13;;;;;;;;;;;;;;;;;;5129333;28;20287;-42
2024/01/09 00:53:38;;;;;;;;;;;;;;;;;;5129537;28;20407;-43
2024/01/09 00:56:04;;;;;;;;;;;;;;;;;;5129456;28;20340;-43
2024/01/09 00:58:29;;;;;;;;;;;;;;;;;;5129513;28;20054;-42
2024/01/09 01:00:55;;;;;;;;;;;;;;;;;;5129418;28;19931;-41
2024/01/09 01:03:20;;;;;;;;;;;;;;;;;;5129202;28;20441;-42
2024/01/09 01:05:46;;;;;;;;;;;;;;;;;;5129886;28;20417;-44
2024/01/09 01:08:11;;;;;;;;;;;;;;;;;;5129651;28;19935;-42
2024/01/09 01:10:37;;;;;;;;;;;;;;;;;;5129741;28;20030;-44
2024/01/09 01:13:02;;;;;;;;;;;;;;;;;;5129425;28;20018;-42
2024/01/09 01:15:28;;;;;;;;;;;;;;;;;;5129070;28;20339;-41
2024/01/09 01:17:53;;;;;;;;;;;;;;;;;;5129285;28;19930;-41
2024/01/09 01:20:19;;;;;;;;;;;;;;;;;;5129899;28;19970;-41
2024/01/09 01:22:44;;;;;;;;;;;;;;;;;;5128151;28;20462;-41
2024/01/09 01:25:09;;;;;;;;;;;;;;;;;;5129361;28;19963;-42
2024/01/09 01:27:35;;;;;;;;;;;;;;;;;;5128991;28;19924;-41
2024/01/09 01:30:00;;;;;;;;;;;;;;;;;;5128348;28;20026;-42
2024/01/09 01:32:26;;;;;;;;;;;;;;;;;;5128081;28;20014;-43
2024/01/09 01:34:51;;;;;;;;;;;;;;;;;;5128980;28;19994;-42
2024/01/09 01:37:17;;;;;;;;;;;;;;;;;;5128356;28;19971;-42
2024/01/09 01:39:42;;;;;;;;;;;;;;;;;;5128107;27;20450;-43
2024/01/09 01:42:08;;;;;;;;;;;;;;;;;;5128051;28;19997;-43
2024/01/09 01:44:33;;;;;;;;;;;;;;;;;;5128771;28;20030;-42
2024/01/09 01:46:59;;;;;;;;;;;;;;;;;;5128169;28;19931;-41
2024/01/09 01:49:24;;;;;;;;;;;;;;;;;;5129102;28;20063;-41
2024/01/09 01:51:50;;;;;;;;;;;;;;;;;;5128222;28;20635;-44
2024/01/09 01:54:15;;;;;;;;;;;;;;;;;;5128440;28;20026;-41
2024/01/09 01:56:41;;;;;;;;;;;;;;;;;;5128608;28;20395;-43
2024/01/09 01:59:06;;;;;;;;;;;;;;;;;;5128451;28;19933;-41
2024/01/09 02:01:31;;;;;;;;;;;;;;;;;;5128169;28;19937;-41
2024/01/09 02:03:57;;;;;;;;;;;;;;;;;;5125938;28;19967;-43
2024/01/09 02:06:22;;;;;;;;;;;;;;;;;;5128522;28;19970;-43
2024/01/09 02:08:48;;;;;;;;;;;;;;;;;;5128440;28;19934;-41
2024/01/09 02:11:13;;;;;;;;;;;;;;;;;;5128125;28;19965;-42
2024/01/09 02:13:39;;;;;;;;;;;;;;;;;;5128681;28;20392;-44
2024/01/09 02:16:04;;;;;;;;;;;;;;;;;;5127803;28;19990;-42
2024/01/09 02:18:30;;;;;;;;;;;;;;;;;;5128011;28;20010;-43
2024/01/09 02:20:55;;;;;;;;;;;;;;;;;;5128767;28;19975;-43
2024/01/09 02:23:21;;;;;;;;;;;;;;;;;;5128258;28;19977;-42
2024/01/09 02:25:46;;;;;;;;;;;;;;;;;;5127663;28;20340;-43
2024/01/09 02:28:12;;;;;;;;;;;;;;;;;;5128337;28;19927;-43
2024/01/09 02:30:37;;;;;;;;;;;;;;;;;;5128136;28;19932;-41
2024/01/09 02:33:03;;;;;;;;;;;;;;;;;;5127421;28;20359;-41
2024/01/09 02:35:28;;;;;;;;;;;;;;;;;;5126655;27;20015;-43
2024/01/09 02:37:54;;;;;;;;;;;;;;;;;;5127649;28;19945;-40
2024/01/09 02:40:19;;;;;;;;;;;;;;;;;;5127904;28;19967;-43
2024/01/09 02:42:45;;;;;;;;;;;;;;;;;;5127140;28;20375;-42
2024/01/09 02:45:13;;;;;;;;;;;;;;;;;;5128122;28;19931;-41
2024/01/09 02:47:38;;;;;;;;;;;;;;;;;;5127777;28;20375;-42
2024/01/09 02:50:04;;;;;;;;;;;;;;;;;;5128333;28;20034;-41
2024/01/09 02:52:29;;;;;;;;;;;;;;;;;;5127899;27;20030;-41
2024/01/09 02:54:55;;;;;;;;;;;;;;;;;;5127769;28;20018;-42
2024/01/09 02:57:20;;;;;;;;;;;;;;;;;;5127747;28;19931;-42
2024/01/09 02:59:46;;;;;;;;;;;;;;;;;;5126585;28;20351;-42
2024/01/09 03:02:11;;;;;;;;;;;;;;;;;;5126955;28;20014;-43
2024/01/09 03:04:37;;;;;;;;;;;;;;;;;;5127114;28;19927;-45
2024/01/09 03:07:02;;;;;;;;;;;;;;;;;;5127224;28;19931;-42
2024/01/09 03:09:28;;;;;;;;;;;;;;;;;;5127379;28;19923;-41
2024/01/09 03:11:53;;;;;;;;;;;;;;;;;;5126862;28;19973;-42
2024/01/09 03:14:19;;;;;;;;;;;;;;;;;;5127808;28;20018;-43
2024/01/09 03:16:44;;;;;;;;;;;;;;;;;;5127265;28;20035;-41
2024/01/09 03:19:10;;;;;;;;;;;;;;;;;;5127759;28;20017;-44
2024/01/09 03:21:35;;;;;;;;;;;;;;;;;;5127651;28;20442;-41
2024/01/09 03:24:01;;;;;;;;;;;;;;;;;;5127124;28;20370;-42
2024/01/09 03:26:26;;;;;;;;;;;;;;;;;;5126668;28;20265;-42
2024/01/09 03:28:52;;;;;;;;;;;;;;;;;;5127201;28;20042;-42
2024/01/09 03:31:17;;;;;;;;;;;;;;;;;;5127110;28;19931;-43
2024/01/09 03:33:42;;;;;;;;;;;;;;;;;;5126553;28;20147;-41
2024/01/09 03:36:08;;;;;;;;;;;;;;;;;;5127248;28;19924;-42
2024/01/09 03:38:33;;;;;;;;;;;;;;;;;;5126759;28;19930;-42
2024/01/09 03:40:59;;;;;;;;;;;;;;;;;;5126315;28;19930;-43
2024/01/09 03:43:24;;;;;;;;;;;;;;;;;;5125912;28;20018;-44
2024/01/09 03:45:52;;;;;;;;;;;;;;;;;;5126358;28;19966;-42
2024/01/09 03:48:17;;;;;;;;;;;;;;;;;;5126391;28;19923;-42
2024/01/09 03:50:43;;;;;;;;;;;;;;;;;;5126818;28;20362;-41
2024/01/09 03:53:09;;;;;;;;;;;;;;;;;;5126512;28;19923;-44
2024/01/09 03:55:34;;;;;;;;;;;;;;;;;;5126584;28;20605;-42
2024/01/09 03:57:59;;;;;;;;;;;;;;;;;;5126068;28;19977;-43
2024/01/09 04:00:25;;;;;;;;;;;;;;;;;;5126500;28;19924;-43
2024/01/09 04:02:50;;;;;;;;;;;;;;;;;;5125397;27;20018;-44
2024/01/09 04:05:16;;;;;;;;;;;;;;;;;;5129784;28;20010;-41
2024/01/09 04:07:41;;;;;;;;;;;;;;;;;;5129955;28;20370;-41
2024/01/09 04:10:07;;;;;;;;;;;;;;;;;;5129774;28;20052;-41
2024/01/09 04:12:33;;;;;;;;;;;;;;;;;;5129563;28;19970;-42
2024/01/09 04:14:58;;;;;;;;;;;;;;;;;;5130320;28;20006;-41
2024/01/09 04:17:23;;;;;;;;;;;;;;;;;;5129341;28;20007;-42
2024/01/09 04:19:49;;;;;;;;;;;;;;;;;;5130142;28;19927;-41
2024/01/09 04:22:14;;;;;;;;;;;;;;;;;;5129569;28;19965;-41
2024/01/09 04:24:40;;;;;;;;;;;;;;;;;;5130144;28;20038;-42
2024/01/09 04:27:05;;;;;;;;;;;;;;;;;;5129587;28;19955;-42
2024/01/09 04:29:31;;;;;;;;;;;;;;;;;;5129358;28;20808;-42
2024/01/09 04:31:56;;;;;;;;;;;;;;;;;;5129435;28;20025;-42
2024/01/09 04:34:22;;;;;;;;;;;;;;;;;;5129275;28;20000;-43
2024/01/09 04:36:47;;;;;;;;;;;;;;;;;;5129353;28;19980;-41
2024/01/09 04:39:13;;;;;;;;;;;;;;;;;;5129421;28;19927;-42
2024/01/09 04:41:38;;;;;;;;;;;;;;;;;;5129102;28;20437;-43
2024/01/09 04:44:04;;;;;;;;;;;;;;;;;;5129500;28;20324;-43
2024/01/09 04:46:29;;;;;;;;;;;;;;;;;;5129139;28;20324;-41
2024/01/09 04:48:55;;;;;;;;;;;;;;;;;;5129574;28;19923;-41
2024/01/09 04:51:21;;;;;;;;;;;;;;;;;;5129403;28;19951;-41
2024/01/09 04:53:46;;;;;;;;;;;;;;;;;;5130205;28;19982;-42
2024/01/09 04:56:11;;;;;;;;;;;;;;;;;;5130004;28;20057;-42
2024/01/09 04:58:37;;;;;;;;;;;;;;;;;;5129445;28;20007;-45
2024/01/09 05:01:02;;;;;;;;;;;;;;;;;;5129694;28;20575;-41
2024/01/09 05:03:28;;;;;;;;;;;;;;;;;;5128513;28;20014;-42
2024/01/09 05:05:53;;;;;;;;;;;;;;;;;;5129842;28;19931;-42
2024/01/09 05:08:19;;;;;;;;;;;;;;;;;;5128900;28;20327;-41
2024/01/09 05:10:45;;;;;;;;;;;;;;;;;;5129266;28;19931;-42
2024/01/09 05:13:10;;;;;;;;;;;;;;;;;;5129002;28;19927;-42
2024/01/09 05:15:35;;;;;;;;;;;;;;;;;;5127896;27;19967;-42
2024/01/09 05:18:01;;;;;;;;;;;;;;;;;;5128958;28;19959;-44
2024/01/09 05:20:27;;;;;;;;;;;;;;;;;;5129050;28;20015;-44
2024/01/09 05:22:52;;;;;;;;;;;;;;;;;;5129018;28;19927;-43
2024/01/09 05:25:18;;;;;;;;;;;;;;;;;;5129631;28;19963;-42
2024/01/09 05:27:43;;;;;;;;;;;;;;;;;;5128785;28;19927;-42
2024/01/09 05:30:09;;;;;;;;;;;;;;;;;;5128293;28;20039;-43
2024/01/09 05:32:34;;;;;;;;;;;;;;;;;;5128945;28;19924;-41
2024/01/09 05:35:01;;;;;;;;;;;;;;;;;;5128985;28;19967;-42
2024/01/09 05:37:26;;;;;;;;;;;;;;;;;;5128322;28;19971;-42
2024/01/09 05:39:52;;;;;;;;;;;;;;;;;;5128953;28;19981;-42
2024/01/09 05:42:17;;;;;;;;;;;;;;;;;;5128208;28;20025;-42
2024/01/09 05:44:51;;;;;;;;;;;;;;;;;;5128675;28;19923;-43
2024/01/09 05:47:17;;;;;;;;;;;;;;;;;;5128410;28;20006;-42
2024/01/09 05:49:42;;;;;;;;;;;;;;;;;;5128846;28;20299;-41
2024/01/09 05:52:08;;;;;;;;;;;;;;;;;;5127959;28;19963;-41
2024/01/09 05:54:34;;;;;;;;;;;;;;;;;;5128811;28;20324;-41
2024/01/09 05:56:59;;;;;;;;;;;;;;;;;;5129157;28;20014;-43
2024/01/09 05:59:25;;;;;;;;;;;;;;;;;;5128645;28;20011;-42
2024/01/09 06:01:50;;;;;;;;;;;;;;;;;;5126759;28;20451;-43
2024/01/09 06:04:16;;;;;;;;;;;;;;;;;;5126769;28;19931;-41
2024/01/09 06:06:41;;;;;;;;;;;;;;;;;;5127476;28;20621;-45
2024/01/09 06:09:08;;;;;;;;;;;;;;;;;;5126499;28;19947;-41
2024/01/09 06:11:33;;;;;;;;;;;;;;;;;;5127826;28;20280;-42
2024/01/09 06:13:59;;;;;;;;;;;;;;;;;;5127945;28;19959;-41
2024/01/09 06:16:24;;;;;;;;;;;;;;;;;;5127503;28;19946;-42
2024/01/09 06:18:49;;;;;;;;;;;;;;;;;;5128393;28;19958;-41
2024/01/09 06:21:15;;;;;;;;;;;;;;;;;;5127913;28;20054;-41
2024/01/09 06:23:43;;;;;;;;;;;;;;;;;;5128041;28;20442;-43
2024/01/09 06:26:08;;;;;;;;;;;;;;;;;;5123450;28;19955;-41
2024/01/09 06:28:34;;;;;;;;;;;;;;;;;;5124470;28;20347;-41
2024/01/09 06:30:59;;;;;;;;;;;;;;;;;;5127009;27;20299;-45
2024/01/09 06:33:25;;;;;;;;;;;;;;;;;;5126153;28;20014;-44
2024/01/09 06:35:51;;;;;;;;;;;;;;;;;;5120958;27;19924;-42
2024/01/09 06:38:16;;;;;;;;;;;;;;;;;;5122400;28;20659;-41
2024/01/09 06:40:42;;;;;;;;;;;;;;;;;;5123903;28;19924;-44
2024/01/09 06:43:07;;;;;;;;;;;;;;;;;;5124581;28;19923;-44
2024/01/09 06:45:33;;;;;;;;;;;;;;;;;;5127176;28;19939;-41
2024/01/09 06:47:58;;;;;;;;;;;;;;;;;;5122420;28;19929;-41
2024/01/09 06:50:24;;;;;;;;;;;;;;;;;;5125870;28;19964;-41
2024/01/09 06:52:58;;;;;;;;;;;;;;;;;;5125937;28;19966;-42
2024/01/09 06:55:23;;;;;;;;;;;;;;;;;;5124097;28;19959;-44
2024/01/09 06:57:49;;;;;;;;;;;;;;;;;;5125234;28;19923;-42
2024/01/09 07:00:15;;;;;;;;;;;;;;;;;;5125785;28;19927;-44
2024/01/09 07:02:40;;;;;;;;;;;;;;;;;;5118943;27;20041;-41
2024/01/09 07:05:06;;;;;;;;;;;;;;;;;;5126170;27;19976;-42
2024/01/09 07:07:32;;;;;;;;;;;;;;;;;;5122324;28;19935;-41
2024/01/09 07:10:03;;;;;;;;;;;;;;;;;;5119217;27;20018;-41
2024/01/09 07:12:29;;;;;;;;;;;;;;;;;;5123799;28;19929;-40
2024/01/09 07:14:55;;;;;;;;;;;;;;;;;;5120452;28;19931;-44
2024/01/09 07:17:21;;;;;;;;;;;;;;;;;;5119179;28;19994;-43
2024/01/09 07:19:47;;;;;;;;;;;;;;;;;;5117773;28;19931;-40
2024/01/09 07:22:12;;;;;;;;;;;;;;;;;;5118964;27;20014;-41
2024/01/09 07:24:38;;;;;;;;;;;;;;;;;;5117935;28;19942;-41
2024/01/09 07:27:03;;;;;;;;;;;;;;;;;;5123484;28;20280;-41
2024/01/09 07:29:29;;;;;;;;;;;;;;;;;;5124694;28;20030;-42
2024/01/09 07:31:54;;;;;;;;;;;;;;;;;;5122583;27;19961;-41
2024/01/09 07:34:19;;;;;;;;;;;;;;;;;;5119261;28;19982;-42
2024/01/09 07:36:45;;;;;;;;;;;;;;;;;;5118697;27;19938;-41
2024/01/09 07:39:10;;;;;;;;;;;;;;;;;;5121508;27;20002;-42
2024/01/09 07:41:36;;;;;;;;;;;;;;;;;;5125546;28;19931;-41
2024/01/09 07:44:02;;;;;;;;;;;;;;;;;;5128372;28;20022;-42
2024/01/09 07:46:27;;;;;;;;;;;;;;;;;;5125437;28;19939;-42
2024/01/09 07:48:53;;;;;;;;;;;;;;;;;;5126955;28;20396;-43
2024/01/09 07:51:18;;;;;;;;;;;;;;;;;;5125206;28;20569;-44
2024/01/09 07:53:44;;;;;;;;;;;;;;;;;;5127029;28;19953;-43
2024/01/09 07:56:09;;;;;;;;;;;;;;;;;;5125613;27;20406;-42
2024/01/09 07:58:35;;;;;;;;;;;;;;;;;;5123360;28;20026;-40
2024/01/09 08:01:00;;;;;;;;;;;;;;;;;;5125488;28;20355;-41
2024/01/09 08:03:26;;;;;;;;;;;;;;;;;;5117396;27;20424;-42
2024/01/09 08:05:51;;;;;;;;;;;;;;;;;;5123062;28;20030;-42
2024/01/09 08:08:17;;;;;;;;;;;;;;;;;;5118751;27;20379;-42
2024/01/09 08:10:42;;;;;;;;;;;;;;;;;;5121637;27;20397;-45
2024/01/09 08:13:08;;;;;;;;;;;;;;;;;;5119944;27;20017;-41
2024/01/09 08:15:33;;;;;;;;;;;;;;;;;;5121157;27;19932;-44
2024/01/09 08:17:59;;;;;;;;;;;;;;;;;;5119951;28;19983;-42
2024/01/09 08:20:24;;;;;;;;;;;;;;;;;;5121575;28;19932;-42
2024/01/09 08:22:50;;;;;;;;;;;;;;;;;;5124322;27;20120;-42
2024/01/09 08:25:15;;;;;;;;;;;;;;;;;;5130095;27;20531;-44
2024/01/09 08:27:41;;;;;;;;;;;;;;;;;;5126781;28;19927;-41
2024/01/09 08:30:08;;;;;;;;;;;;;;;;;;5126426;28;20430;-41
2024/01/09 08:32:33;;;;;;;;;;;;;;;;;;5115227;28;19935;-41
2024/01/09 08:35:00;;;;;;;;;;;;;;;;;;5112618;28;21010;-43
2024/01/09 08:37:26;;;;;;;;;;;;;;;;;;5110024;28;19971;-41
2024/01/09 08:39:51;;;;;;;;;;;;;;;;;;5110459;27;19927;-42
2024/01/09 08:42:17;;;;;;;;;;;;;;;;;;5111358;28;19938;-42
2024/01/09 08:44:42;;;;;;;;;;;;;;;;;;5110360;28;19976;-40
2024/01/09 08:47:08;;;;;;;;;;;;;;;;;;5106360;27;19934;-46
2024/01/09 08:49:33;;;;;;;;;;;;;;;;;;5110223;28;19932;-43
2024/01/09 08:51:59;;;;;;;;;;;;;;;;;;5110490;27;20075;-43
2024/01/09 08:54:24;;;;;;;;;;;;;;;;;;5110398;28;20039;-44
2024/01/09 08:56:50;;;;;;;;;;;;;;;;;;5111835;28;19931;-44
2024/01/09 08:59:15;;;;;;;;;;;;;;;;;;5114316;27;19932;-41
2024/01/09 09:01:41;;;;;;;;;;;;;;;;;;5112203;28;19928;-42
2024/01/09 09:04:06;;;;;;;;;;;;;;;;;;5112612;28;20416;-41
2024/01/09 09:06:32;;;;;;;;;;;;;;;;;;5120426;28;19981;-42
2024/01/09 09:08:57;;;;;;;;;;;;;;;;;;5119695;28;19946;-40
2024/01/09 09:11:23;;;;;;;;;;;;;;;;;;5113216;28;20217;-41
2024/01/09 09:13:48;;;;;;;;;;;;;;;;;;5117299;27;19951;-43
2024/01/09 09:16:14;;;;;;;;;;;;;;;;;;5122588;28;20295;-43
2024/01/09 09:18:39;;;;;;;;;;;;;;;;;;5119672;28;19927;-43
2024/01/09 09:21:05;;;;;;;;;;;;;;;;;;5121031;27;20589;-42
2024/01/09 09:23:31;;;;;;;;;;;;;;;;;;5117760;28;19934;-44
2024/01/09 09:25:56;;;;;;;;;;;;;;;;;;5116190;27;19980;-41
2024/01/09 09:28:22;;;;;;;;;;;;;;;;;;5122931;28;20038;-43
2024/01/09 09:30:47;;;;;;;;;;;;;;;;;;5121069;28;19984;-41
2024/01/09 09:33:13;;;;;;;;;;;;;;;;;;5121726;28;19993;-41
2024/01/09 09:35:38;;;;;;;;;;;;;;;;;;5111420;27;19931;-45
2024/01/09 09:38:04;;;;;;;;;;;;;;;;;;5116981;28;19928;-41
2024/01/09 09:40:29;;;;;;;;;;;;;;;;;;5114352;28;19971;-42
2024/01/09 09:42:57;;;;;;;;;;;;;;;;;;5114444;27;20017;-43
2024/01/09 09:45:22;;;;;;;;;;;;;;;;;;5105319;28;20936;-42
2024/01/09 09:47:48;;;;;;;;;;;;;;;;;;5104607;27;20014;-44
2024/01/09 09:50:13;;;;;;;;;;;;;;;;;;5109638;28;19937;-41
2024/01/09 09:52:39;;;;;;;;;;;;;;;;;;5110741;27;20650;-41
2024/01/09 09:55:04;;;;;;;;;;;;;;;;;;5107750;28;20014;-42
2024/01/09 09:57:29;;;;;;;;;;;;;;;;;;5109158;28;20567;-42
2024/01/09 09:59:55;;;;;;;;;;;;;;;;;;5108746;28;19931;-41
2024/01/09 10:02:21;;;;;;;;;;;;;;;;;;5108840;27;19932;-43
2024/01/09 10:04:51;;;;;;;;;;;;;;;;;;5105922;28;19939;-42
2024/01/09 10:07:16;;;;;;;;;;;;;;;;;;5105897;27;21309;-43
2024/01/09 10:09:43;;;;;;;;;;;;;;;;;;5103644;27;19974;-42
2024/01/09 10:12:09;;;;;;;;;;;;;;;;;;5104580;27;19955;-41
2024/01/09 10:14:34;;;;;;;;;;;;;;;;;;5104225;27;19980;-43
2024/01/09 10:17:03;;;;;;;;;;;;;;;;;;5102130;27;20078;-50
2024/01/09 10:19:28;;;;;;;;;;;;;;;;;;5107110;28;19923;-42
2024/01/09 10:21:54;;;;;;;;;;;;;;;;;;5109219;28;20307;-42
2024/01/09 10:24:19;;;;;;;;;;;;;;;;;;5106780;28;19935;-40
2024/01/09 10:26:45;;;;;;;;;;;;;;;;;;5109867;27;19931;-43
2024/01/09 10:29:10;;;;;;;;;;;;;;;;;;5110349;27;19932;-43
2024/01/09 10:31:36;;;;;;;;;;;;;;;;;;5106740;28;20432;-41
2024/01/09 10:34:01;;;;;;;;;;;;;;;;;;5106266;27;19931;-41
2024/01/09 10:36:27;;;;;;;;;;;;;;;;;;5056535;28;19932;-44
2024/01/09 10:38:52;;;;;;;;;;;;;;;;;;5061164;28;20350;-40
2024/01/09 10:41:18;;;;;;;;;;;;;;;;;;5061294;28;20226;-42
2024/01/09 10:43:44;;;;;;;;;;;;;;;;;;5066132;28;20486;-40
2024/01/09 10:46:10;;;;;;;;;;;;;;;;;;5064945;28;19982;-44
2024/01/09 10:48:35;;;;;;;;;;;;;;;;;;5067227;28;19924;-41
2024/01/09 10:51:01;;;;;;;;;;;;;;;;;;5063082;28;19954;-45
2024/01/09 10:53:27;;;;;;;;;;;;;;;;;;5066812;28;19924;-43
2024/01/09 10:55:53;;;;;;;;;;;;;;;;;;5118318;27;20327;-40
2024/01/09 10:58:18;;;;;;;;;;;;;;;;;;5122807;28;19976;-40
2024/01/09 11:00:44;;;;;;;;;;;;;;;;;;5124652;28;20239;-43
2024/01/09 11:03:11;;;;;;;;;;;;;;;;;;5121514;28;20022;-40
2024/01/09 11:05:37;;;;;;;;;;;;;;;;;;5124844;27;20378;-42
2024/01/09 11:08:03;;;;;;;;;;;;;;;;;;5124668;28;20434;-42
2024/01/09 11:10:28;;;;;;;;;;;;;;;;;;5125749;28;19987;-41
2024/01/09 11:12:54;;;;;;;;;;;;;;;;;;5121863;27;20054;-42
2024/01/09 11:15:19;;;;;;;;;;;;;;;;;;5123987;28;20541;-44
2024/01/09 11:17:44;;;;;;;;;;;;;;;;;;5123019;28;20026;-42
2024/01/09 11:20:10;;;;;;;;;;;;;;;;;;5121707;28;19975;-43
2024/01/09 11:22:36;;;;;;;;;;;;;;;;;;5117775;28;20275;-43
2024/01/09 11:25:01;;;;;;;;;;;;;;;;;;5121068;27;20232;-43
2024/01/09 11:27:27;;;;;;;;;;;;;;;;;;5125146;28;20083;-43
2024/01/09 11:29:53;;;;;;;;;;;;;;;;;;5125300;28;20406;-43
2024/01/09 11:32:18;;;;;;;;;;;;;;;;;;5118718;28;20014;-43
2024/01/09 11:34:44;;;;;;;;;;;;;;;;;;5108188;28;20416;-42
2024/01/09 11:37:09;;;;;;;;;;;;;;;;;;5108290;27;19931;-41
2024/01/09 11:39:35;;;;;;;;;;;;;;;;;;5105957;28;20432;-41
2024/01/09 11:42:00;;;;;;;;;;;;;;;;;;5107016;28;19931;-40
2024/01/09 11:44:26;;;;;;;;;;;;;;;;;;5114667;28;20258;-42
2024/01/09 11:46:51;;;;;;;;;;;;;;;;;;5117848;28;20064;-39
2024/01/09 11:49:17;;;;;;;;;;;;;;;;;;5117904;27;19931;-41
2024/01/09 11:51:43;;;;;;;;;;;;;;;;;;5116025;27;20279;-42
2024/01/09 11:54:08;;;;;;;;;;;;;;;;;;5117342;28;19992;-42
2024/01/09 11:56:34;;;;;;;;;;;;;;;;;;5118080;28;19959;-44
2024/01/09 11:59:00;;;;;;;;;;;;;;;;;;5115441;28;19955;-42
2024/01/09 12:01:26;;;;;;;;;;;;;;;;;;5120275;28;19936;-43
2024/01/09 12:03:52;;;;;;;;;;;;;;;;;;5112170;28;19927;-40
2024/01/09 12:06:18;;;;;;;;;;;;;;;;;;5121314;28;19999;-40
2024/01/09 12:08:43;;;;;;;;;;;;;;;;;;5123297;27;19973;-41
2024/01/09 12:11:08;;;;;;;;;;;;;;;;;;5120834;28;19929;-41
2024/01/09 12:13:35;;;;;;;;;;;;;;;;;;5110657;28;20420;-42
2024/01/09 12:16:00;;;;;;;;;;;;;;;;;;5107744;28;19981;-41
2024/01/09 12:18:25;;;;;;;;;;;;;;;;;;5107543;27;19986;-42
2024/01/09 12:20:51;;;;;;;;;;;;;;;;;;5110093;28;19930;-43
2024/01/09 12:23:16;;;;;;;;;;;;;;;;;;5103084;28;19927;-42
2024/01/09 12:25:44;;;;;;;;;;;;;;;;;;5108993;27;19928;-40
2024/01/09 12:28:09;;;;;;;;;;;;;;;;;;5109244;28;20391;-43
2024/01/09 12:30:35;;;;;;;;;;;;;;;;;;5112219;28;19930;-40
2024/01/09 12:33:02;;;;;;;;;;;;;;;;;;5111147;28;19980;-41
2024/01/09 12:35:27;;;;;;;;;;;;;;;;;;5112059;27;19931;-41
2024/01/09 12:37:53;;;;;;;;;;;;;;;;;;5111529;28;20011;-40
2024/01/09 12:40:18;;;;;;;;;;;;;;;;;;5110664;28;19935;-41
2024/01/09 12:42:44;;;;;;;;;;;;;;;;;;5108524;28;19931;-40
2024/01/09 12:45:10;;;;;;;;;;;;;;;;;;5113909;28;20042;-41
2024/01/09 12:47:36;;;;;;;;;;;;;;;;;;5124346;28;19923;-41
2024/01/09 12:50:04;;;;;;;;;;;;;;;;;;5123608;28;19947;-50
2024/01/09 12:52:31;;;;;;;;;;;;;;;;;;5120534;27;19934;-43
2024/01/09 12:54:56;;;;;;;;;;;;;;;;;;5122541;28;19927;-42
2024/01/09 12:57:22;;;;;;;;;;;;;;;;;;5125243;28;19928;-43
2024/01/09 12:59:49;;;;;;;;;;;;;;;;;;5123927;28;19931;-44
2024/01/09 13:02:14;;;;;;;;;;;;;;;;;;5127436;28;19923;-40
2024/01/09 13:04:40;;;;;;;;;;;;;;;;;;5120623;28;20030;-43
2024/01/09 13:07:05;;;;;;;;;;;;;;;;;;5126630;28;20011;-43
2024/01/09 13:09:31;;;;;;;;;;;;;;;;;;5124627;28;19935;-43
2024/01/09 13:11:57;;;;;;;;;;;;;;;;;;5125434;28;20275;-41
2024/01/09 13:14:23;;;;;;;;;;;;;;;;;;5120206;28;19928;-40
2024/01/09 13:16:51;;;;;;;;;;;;;;;;;;5112441;27;20064;-41
2024/01/09 13:19:17;;;;;;;;;;;;;;;;;;5112468;28;19927;-41
2024/01/09 13:21:44;;;;;;;;;;;;;;;;;;5121580;28;19938;-41
2024/01/09 13:24:12;;;;;;;;;;;;;;;;;;5115205;27;19939;-41
2024/01/09 13:26:38;;;;;;;;;;;;;;;;;;5121353;28;20133;-41
2024/01/09 13:29:03;;;;;;;;;;;;;;;;;;5118587;28;19935;-43
2024/01/09 13:31:49;;;;;;;;;;;;;;;;;;5107749;28;19930;-42
2024/01/09 13:34:16;;;;;;;;;;;;;;;;;;5118635;28;19932;-43
2024/01/09 13:36:41;;;;;;;;;;;;;;;;;;5116483;27;19927;-41
2024/01/09 13:39:09;;;;;;;;;;;;;;;;;;5122015;28;19927;-41
2024/01/09 13:41:36;;;;;;;;;;;;;;;;;;5124934;27;19931;-42
2024/01/09 13:44:01;;;;;;;;;;;;;;;;;;5121619;28;20264;-41
2024/01/09 13:46:28;;;;;;;;;;;;;;;;;;5118678;28;19933;-42
2024/01/09 13:48:54;;;;;;;;;;;;;;;;;;5118022;28;19932;-40
2024/01/09 13:51:21;;;;;;;;;;;;;;;;;;5123345;27;19970;-43
2024/01/09 13:53:52;;;;;;;;;;;;;;;;;;5118092;27;19931;-42
2024/01/09 13:56:18;;;;;;;;;;;;;;;;;;5122620;28;19942;-42
2024/01/09 13:58:44;;;;;;;;;;;;;;;;;;5113301;28;21206;-42
2024/01/09 14:01:10;;;;;;;;;;;;;;;;;;5124258;28;19994;-41
2024/01/09 14:03:35;;;;;;;;;;;;;;;;;;5120730;28;20006;-40
2024/01/09 14:06:01;;;;;;;;;;;;;;;;;;5126403;28;20006;-41
2024/01/09 14:08:27;;;;;;;;;;;;;;;;;;5121084;28;20022;-41
2024/01/09 14:10:53;;;;;;;;;;;;;;;;;;5117015;28;19927;-40
2024/01/09 14:13:18;;;;;;;;;;;;;;;;;;5110809;27;20046;-40
2024/01/09 14:15:44;;;;;;;;;;;;;;;;;;5118454;27;19938;-41
2024/01/09 14:18:09;;;;;;;;;;;;;;;;;;5114767;27;19978;-40
2024/01/09 14:20:35;;;;;;;;;;;;;;;;;;5113267;27;20446;-40
2024/01/09 14:23:00;;;;;;;;;;;;;;;;;;5117377;27;19935;-42
2024/01/09 14:25:26;;;;;;;;;;;;;;;;;;5124912;27;20001;-40
2024/01/09 14:27:51;;;;;;;;;;;;;;;;;;5122124;27;20045;-40
2024/01/09 14:30:18;;;;;;;;;;;;;;;;;;5122665;27;19924;-42
2024/01/09 14:32:44;;;;;;;;;;;;;;;;;;5122937;27;19924;-41
2024/01/09 14:35:09;;;;;;;;;;;;;;;;;;5124256;27;19953;-42
2024/01/09 14:37:35;;;;;;;;;;;;;;;;;;5125508;27;19931;-42
2024/01/09 14:40:03;;;;;;;;;;;;;;;;;;5124121;27;19950;-42
2024/01/09 14:42:28;;;;;;;;;;;;;;;;;;5123111;27;20274;-41
2024/01/09 14:44:55;;;;;;;;;;;;;;;;;;5123925;27;20023;-41
2024/01/09 14:47:21;;;;;;;;;;;;;;;;;;5124755;27;19927;-41
2024/01/09 14:49:46;;;;;;;;;;;;;;;;;;5124834;28;20023;-41
2024/01/09 14:52:11;;;;;;;;;;;;;;;;;;5121505;27;20017;-41
2024/01/09 14:54:37;;;;;;;;;;;;;;;;;;5125428;27;20006;-41
2024/01/09 14:57:03;;;;;;;;;;;;;;;;;;5123161;28;19981;-41
2024/01/09 14:59:28;;;;;;;;;;;;;;;;;;5121262;27;20010;-43
2024/01/09 15:01:53;;;;;;;;;;;;;;;;;;5127762;28;19930;-40
2024/01/09 15:04:19;;;;;;;;;;;;;;;;;;5124559;28;20451;-41
2024/01/09 15:06:45;;;;;;;;;;;;;;;;;;5122764;28;20358;-41
2024/01/09 15:09:12;;;;;;;;;;;;;;;;;;5120334;27;19924;-40
2024/01/09 15:11:38;;;;;;;;;;;;;;;;;;5118415;27;20508;-40
2024/01/09 15:14:03;;;;;;;;;;;;;;;;;;5124472;28;19927;-40
2024/01/09 15:16:29;;;;;;;;;;;;;;;;;;5123265;28;19931;-42
2024/01/09 15:18:54;;;;;;;;;;;;;;;;;;5121695;27;20299;-40
2024/01/09 15:21:20;;;;;;;;;;;;;;;;;;5120043;27;20010;-41
2024/01/09 15:23:45;;;;;;;;;;;;;;;;;;5118796;27;20410;-40
2024/01/09 15:26:11;;;;;;;;;;;;;;;;;;5118374;27;19945;-41
2024/01/09 15:28:37;;;;;;;;;;;;;;;;;;5123693;27;20418;-42
2024/01/09 15:31:03;;;;;;;;;;;;;;;;;;5116272;27;20927;-41
2024/01/09 15:33:29;;;;;;;;;;;;;;;;;;5125652;28;20371;-41
2024/01/09 15:35:54;;;;;;;;;;;;;;;;;;5121138;28;20022;-40
2024/01/09 15:38:20;;;;;;;;;;;;;;;;;;5123107;28;19923;-42
2024/01/09 15:40:46;;;;;;;;;;;;;;;;;;5125852;28;20270;-42
2024/01/09 15:43:12;;;;;;;;;;;;;;;;;;5125748;28;20011;-41
2024/01/09 15:45:37;;;;;;;;;;;;;;;;;;5126967;28;19935;-41
2024/01/09 15:48:02;;;;;;;;;;;;;;;;;;5127182;28;19924;-41
2024/01/09 15:50:28;;;;;;;;;;;;;;;;;;5126760;28;21008;-40
2024/01/09 15:52:53;;;;;;;;;;;;;;;;;;5127148;28;20327;-40
2024/01/09 15:55:19;;;;;;;;;;;;;;;;;;5126186;28;20002;-42
2024/01/09 15:57:45;;;;;;;;;;;;;;;;;;5126664;28;19931;-42
2024/01/09 16:00:12;;;;;;;;;;;;;;;;;;5128179;27;19981;-40
2024/01/09 16:02:38;;;;;;;;;;;;;;;;;;5130934;28;20349;-42
2024/01/09 16:05:03;;;;;;;;;;;;;;;;;;5130483;28;19938;-41
2024/01/09 16:07:31;;;;;;;;;;;;;;;;;;5130870;28;19923;-41
2024/01/09 16:09:57;;;;;;;;;;;;;;;;;;5130236;28;19971;-42
2024/01/09 16:12:22;;;;;;;;;;;;;;;;;;5130910;28;20010;-41
2024/01/09 16:14:48;;;;;;;;;;;;;;;;;;5130410;28;20410;-41
2024/01/09 16:17:13;;;;;;;;;;;;;;;;;;5130558;28;19967;-42
2024/01/09 16:19:38;;;;;;;;;;;;;;;;;;5130681;28;19989;-40
2024/01/09 16:22:04;;;;;;;;;;;;;;;;;;5130509;28;20022;-41
2024/01/09 16:24:29;;;;;;;;;;;;;;;;;;5130553;28;19931;-41
2024/01/09 16:26:55;;;;;;;;;;;;;;;;;;5130615;28;20019;-41
2024/01/09 16:29:20;;;;;;;;;;;;;;;;;;5130523;28;20442;-41
2024/01/09 16:31:46;;;;;;;;;;;;;;;;;;5130752;28;19927;-41
2024/01/09 16:34:11;;;;;;;;;;;;;;;;;;5130348;28;19924;-40